sensor_id;sensor_type;location;lat;lon;timestamp;pressure;altitude;pressure_sealevel;temperature;humidity
65329;BME280;51941;52.210;5.158;2023-04-01T00:01:25;98973.84;;;11.30;100.00
65329;BME280;51941;52.210;5.158;2023-04-01T00:03:52;98979.94;;;11.30;100.00
65329;BME280;51941;52.210;5.158;2023-04-01T00:06:19;98975.19;;;11.27;100.00
65329;BME280;51941;52.210;5.158;2023-04-01T00:08:46;98977.03;;;11.27;100.00
65329;BME280;51941;52.210;5.158;2023-04-01T00:11:13;98981.63;;;11.21;100.00
65329;BME280;51941;52.210;5.158;2023-04-01T00:13:40;98981.09;;;11.19;100.00
65329;BME280;51941;52.210;5.158;2023-04-01T00:16:08;98978.00;;;11.12;100.00
65329;BME280;51941;52.210;5.158;2023-04-01T00:18:35;98984.28;;;11.16;100.00
65329;BME280;51941;52.210;5.158;2023-04-01T00:21:02;98983.75;;;11.19;100.00
65329;BME280;51941;52.210;5.158;2023-04-01T00:23:29;98991.69;;;11.19;100.00
65329;BME280;51941;52.210;5.158;2023-04-01T00:25:55;98991.13;;;11.22;100.00
65329;BME280;51941;52.210;5.158;2023-04-01T00:28:22;98986.59;;;11.23;100.00
65329;BME280;51941;52.210;5.158;2023-04-01T00:30:48;98992.22;;;11.21;100.00
65329;BME280;51941;52.210;5.158;2023-04-01T00:33:17;98987.41;;;11.23;100.00
65329;BME280;51941;52.210;5.158;2023-04-01T00:35:44;98987.97;;;11.20;100.00
65329;BME280;51941;52.210;5.158;2023-04-01T00:38:11;98988.75;;;11.21;100.00
65329;BME280;51941;52.210;5.158;2023-04-01T00:40:39;98956.94;;;10.97;100.00
65329;BME280;51941;52.210;5.158;2023-04-01T00:43:12;98963.31;;;10.96;100.00
65329;BME280;51941;52.210;5.158;2023-04-01T00:45:40;98981.00;;;11.00;100.00
65329;BME280;51941;52.210;5.158;2023-04-01T00:48:10;98993.91;;;11.07;100.00
65329;BME280;51941;52.210;5.158;2023-04-01T00:50:38;98992.84;;;11.08;100.00
65329;BME280;51941;52.210;5.158;2023-04-01T00:53:07;99003.16;;;11.10;100.00
65329;BME280;51941;52.210;5.158;2023-04-01T00:55:37;98997.06;;;11.09;100.00
65329;BME280;51941;52.210;5.158;2023-04-01T00:58:07;98994.47;;;11.04;100.00
65329;BME280;51941;52.210;5.158;2023-04-01T01:00:37;99000.56;;;11.04;100.00
65329;BME280;51941;52.210;5.158;2023-04-01T01:03:04;99004.34;;;10.93;100.00
65329;BME280;51941;52.210;5.158;2023-04-01T01:05:43;99001.94;;;10.97;100.00
65329;BME280;51941;52.210;5.158;2023-04-01T01:08:17;98999.00;;;10.98;100.00
65329;BME280;51941;52.210;5.158;2023-04-01T01:10:49;98971.13;;;10.72;100.00
65329;BME280;51941;52.210;5.158;2023-04-01T01:13:19;99008.63;;;10.89;100.00
65329;BME280;51941;52.210;5.158;2023-04-01T01:15:52;99004.91;;;10.90;100.00
65329;BME280;51941;52.210;5.158;2023-04-01T01:18:26;99007.81;;;10.89;100.00
65329;BME280;51941;52.210;5.158;2023-04-01T01:24:17;99003.63;;;10.83;100.00
65329;BME280;51941;52.210;5.158;2023-04-01T01:26:54;99008.13;;;10.87;100.00
65329;BME280;51941;52.210;5.158;2023-04-01T01:29:44;99005.47;;;10.87;100.00
65329;BME280;51941;52.210;5.158;2023-04-01T01:32:28;98992.31;;;10.77;100.00
65329;BME280;51941;52.210;5.158;2023-04-01T01:35:12;99007.88;;;10.84;100.00
65329;BME280;51941;52.210;5.158;2023-04-01T01:37:43;99000.75;;;10.74;100.00
65329;BME280;51941;52.210;5.158;2023-04-01T01:40:16;99008.13;;;10.82;100.00
65329;BME280;51941;52.210;5.158;2023-04-01T01:42:46;99012.97;;;10.75;100.00
65329;BME280;51941;52.210;5.158;2023-04-01T01:45:16;98988.13;;;10.66;100.00
65329;BME280;51941;52.210;5.158;2023-04-01T01:47:46;99019.28;;;10.79;100.00
65329;BME280;51941;52.210;5.158;2023-04-01T01:50:17;98988.13;;;10.66;100.00
65329;BME280;51941;52.210;5.158;2023-04-01T01:52:45;99014.81;;;10.75;100.00
65329;BME280;51941;52.210;5.158;2023-04-01T01:55:28;99023.00;;;10.73;100.00
65329;BME280;51941;52.210;5.158;2023-04-01T01:57:59;99023.84;;;10.68;100.00
65329;BME280;51941;52.210;5.158;2023-04-01T02:00:27;99000.94;;;10.49;100.00
65329;BME280;51941;52.210;5.158;2023-04-01T02:02:56;99027.53;;;10.67;100.00
65329;BME280;51941;52.210;5.158;2023-04-01T02:05:26;99003.53;;;10.54;100.00
65329;BME280;51941;52.210;5.158;2023-04-01T02:08:02;99021.94;;;10.74;100.00
65329;BME280;51941;52.210;5.158;2023-04-01T02:10:34;99028.06;;;10.69;100.00
65329;BME280;51941;52.210;5.158;2023-04-01T02:13:07;99000.94;;;10.44;100.00
65329;BME280;51941;52.210;5.158;2023-04-01T02:15:38;99030.25;;;10.52;100.00
65329;BME280;51941;52.210;5.158;2023-04-01T02:18:08;99040.84;;;10.52;100.00
65329;BME280;51941;52.210;5.158;2023-04-01T02:20:36;99039.09;;;10.38;100.00
65329;BME280;51941;52.210;5.158;2023-04-01T02:23:04;99037.97;;;10.49;100.00
65329;BME280;51941;52.210;5.158;2023-04-01T02:25:35;99049.66;;;10.43;100.00
65329;BME280;51941;52.210;5.158;2023-04-01T02:28:04;99049.34;;;10.49;100.00
65329;BME280;51941;52.210;5.158;2023-04-01T02:30:34;99054.38;;;10.46;100.00
65329;BME280;51941;52.210;5.158;2023-04-01T02:33:01;99056.00;;;10.42;100.00
65329;BME280;51941;52.210;5.158;2023-04-01T02:35:30;99059.72;;;10.36;100.00
65329;BME280;51941;52.210;5.158;2023-04-01T02:38:01;99060.50;;;10.41;100.00
65329;BME280;51941;52.210;5.158;2023-04-01T02:40:28;99019.38;;;10.15;100.00
65329;BME280;51941;52.210;5.158;2023-04-01T02:42:55;99059.22;;;10.34;100.00
65329;BME280;51941;52.210;5.158;2023-04-01T02:45:21;99067.94;;;10.34;100.00
65329;BME280;51941;52.210;5.158;2023-04-01T02:47:48;99065.03;;;10.30;100.00
65329;BME280;51941;52.210;5.158;2023-04-01T02:50:15;99069.81;;;10.28;100.00
65329;BME280;51941;52.210;5.158;2023-04-01T02:52:42;99043.72;;;10.07;100.00
65329;BME280;51941;52.210;5.158;2023-04-01T02:55:10;99079.34;;;10.19;100.00
65329;BME280;51941;52.210;5.158;2023-04-01T02:57:37;99083.84;;;10.24;100.00
65329;BME280;51941;52.210;5.158;2023-04-01T03:00:04;99082.78;;;10.25;100.00
65329;BME280;51941;52.210;5.158;2023-04-01T03:02:37;99086.75;;;10.22;100.00
65329;BME280;51941;52.210;5.158;2023-04-01T03:05:04;99092.56;;;10.24;100.00
65329;BME280;51941;52.210;5.158;2023-04-01T03:07:32;99106.09;;;10.13;100.00
65329;BME280;51941;52.210;5.158;2023-04-01T03:09:59;99103.44;;;10.13;100.00
65329;BME280;51941;52.210;5.158;2023-04-01T03:12:27;99102.91;;;10.16;100.00
65329;BME280;51941;52.210;5.158;2023-04-01T03:14:54;99099.47;;;10.15;100.00
65329;BME280;51941;52.210;5.158;2023-04-01T03:17:22;99110.03;;;10.25;100.00
65329;BME280;51941;52.210;5.158;2023-04-01T03:19:48;99111.88;;;10.20;100.00
65329;BME280;51941;52.210;5.158;2023-04-01T03:22:15;99099.47;;;10.10;100.00
65329;BME280;51941;52.210;5.158;2023-04-01T03:24:44;99118.47;;;10.27;100.00
65329;BME280;51941;52.210;5.158;2023-04-01T03:27:11;99123.72;;;10.38;100.00
65329;BME280;51941;52.210;5.158;2023-04-01T03:29:39;99130.63;;;10.28;100.00
65329;BME280;51941;52.210;5.158;2023-04-01T03:32:07;99100.00;;;10.12;100.00
65329;BME280;51941;52.210;5.158;2023-04-01T03:34:34;99131.69;;;10.32;100.00
65329;BME280;51941;52.210;5.158;2023-04-01T03:37:00;99110.56;;;10.22;100.00
65329;BME280;51941;52.210;5.158;2023-04-01T03:39:27;99133.25;;;10.39;100.00
65329;BME280;51941;52.210;5.158;2023-04-01T03:41:54;99136.16;;;10.42;100.00
65329;BME280;51941;52.210;5.158;2023-04-01T03:44:21;99144.06;;;10.47;100.00
65329;BME280;51941;52.210;5.158;2023-04-01T03:46:52;99139.59;;;10.43;100.00
65329;BME280;51941;52.210;5.158;2023-04-01T03:49:19;99144.09;;;10.37;100.00
65329;BME280;51941;52.210;5.158;2023-04-01T03:51:46;99152.88;;;10.22;100.00
65329;BME280;51941;52.210;5.158;2023-04-01T03:54:13;99160.03;;;10.12;100.00
65329;BME280;51941;52.210;5.158;2023-04-01T03:56:39;99162.91;;;10.20;100.00
65329;BME280;51941;52.210;5.158;2023-04-01T03:59:07;99167.66;;;10.18;100.00
65329;BME280;51941;52.210;5.158;2023-04-01T04:01:34;99174.84;;;10.13;100.00
65329;BME280;51941;52.210;5.158;2023-04-01T04:04:02;99178.78;;;10.25;100.00
65329;BME280;51941;52.210;5.158;2023-04-01T04:06:29;99171.91;;;10.09;100.00
65329;BME280;51941;52.210;5.158;2023-04-01T04:08:55;99187.28;;;10.07;100.00
65329;BME280;51941;52.210;5.158;2023-04-01T04:11:23;99166.94;;;9.87;100.00
65329;BME280;51941;52.210;5.158;2023-04-01T04:13:51;99171.44;;;9.87;100.00
65329;BME280;51941;52.210;5.158;2023-04-01T04:16:19;99191.75;;;10.02;100.00
65329;BME280;51941;52.210;5.158;2023-04-01T04:18:52;99204.19;;;10.01;100.00
65329;BME280;51941;52.210;5.158;2023-04-01T04:21:20;99202.06;;;10.08;100.00
65329;BME280;51941;52.210;5.158;2023-04-01T04:23:47;99206.84;;;10.06;100.00
65329;BME280;51941;52.210;5.158;2023-04-01T04:26:16;99217.66;;;10.10;100.00
65329;BME280;51941;52.210;5.158;2023-04-01T04:28:51;99210.81;;;9.99;100.00
65329;BME280;51941;52.210;5.158;2023-04-01T04:31:19;99210.28;;;9.86;100.00
65329;BME280;51941;52.210;5.158;2023-04-01T04:33:46;99224.81;;;9.94;100.00
65329;BME280;51941;52.210;5.158;2023-04-01T04:36:14;99236.47;;;9.98;100.00
65329;BME280;51941;52.210;5.158;2023-04-01T04:38:43;99234.06;;;10.02;100.00
65329;BME280;51941;52.210;5.158;2023-04-01T04:41:13;99237.50;;;10.07;100.00
65329;BME280;51941;52.210;5.158;2023-04-01T04:43:49;99244.63;;;10.17;100.00
65329;BME280;51941;52.210;5.158;2023-04-01T04:46:17;99231.69;;;9.95;100.00
65329;BME280;51941;52.210;5.158;2023-04-01T04:48:45;99242.00;;;10.17;100.00
65329;BME280;51941;52.210;5.158;2023-04-01T04:51:13;99255.19;;;10.02;100.00
65329;BME280;51941;52.210;5.158;2023-04-01T04:53:41;99254.16;;;10.03;100.00
65329;BME280;51941;52.210;5.158;2023-04-01T04:56:09;99265.78;;;10.12;100.00
65329;BME280;51941;52.210;5.158;2023-04-01T04:58:51;99264.22;;;10.16;100.00
65329;BME280;51941;52.210;5.158;2023-04-01T05:01:22;99270.81;;;10.23;100.00
65329;BME280;51941;52.210;5.158;2023-04-01T05:03:49;99277.16;;;10.22;100.00
65329;BME280;51941;52.210;5.158;2023-04-01T05:06:17;99282.41;;;10.17;100.00
65329;BME280;51941;52.210;5.158;2023-04-01T05:08:44;99288.78;;;10.21;100.00
65329;BME280;51941;52.210;5.158;2023-04-01T05:11:15;99286.91;;;10.27;100.00
65329;BME280;51941;52.210;5.158;2023-04-01T05:13:43;99298.56;;;10.21;100.00
65329;BME280;51941;52.210;5.158;2023-04-01T05:16:12;99299.09;;;10.23;100.00
65329;BME280;51941;52.210;5.158;2023-04-01T05:18:39;99293.00;;;10.27;100.00
65329;BME280;51941;52.210;5.158;2023-04-01T05:21:07;99304.38;;;10.18;100.00
65329;BME280;51941;52.210;5.158;2023-04-01T05:23:35;99307.56;;;10.25;100.00
65329;BME280;51941;52.210;5.158;2023-04-01T05:26:04;99309.13;;;10.21;100.00
65329;BME280;51941;52.210;5.158;2023-04-01T05:28:33;99289.31;;;9.98;100.00
65329;BME280;51941;52.210;5.158;2023-04-01T05:31:01;99308.34;;;10.15;100.00
65329;BME280;51941;52.210;5.158;2023-04-01T05:33:33;99315.25;;;10.16;100.00
65329;BME280;51941;52.210;5.158;2023-04-01T05:36:08;99324.19;;;10.10;100.00
65329;BME280;51941;52.210;5.158;2023-04-01T05:38:35;99309.69;;;9.98;100.00
65329;BME280;51941;52.210;5.158;2023-04-01T05:41:04;99332.41;;;10.19;100.00
65329;BME280;51941;52.210;5.158;2023-04-01T05:43:37;99338.50;;;10.24;100.00
65329;BME280;51941;52.210;5.158;2023-04-01T05:46:23;99343.75;;;10.09;100.00
65329;BME280;51941;52.210;5.158;2023-04-01T05:49:10;99353.84;;;10.07;100.00
65329;BME280;51941;52.210;5.158;2023-04-01T05:51:37;99347.75;;;10.12;100.00
65329;BME280;51941;52.210;5.158;2023-04-01T05:54:04;99350.13;;;10.13;100.00
65329;BME280;51941;52.210;5.158;2023-04-01T05:56:31;99346.97;;;10.16;100.00
65329;BME280;51941;52.210;5.158;2023-04-01T05:59:00;99353.53;;;10.09;100.00
65329;BME280;51941;52.210;5.158;2023-04-01T06:01:27;99360.44;;;10.05;100.00
65329;BME280;51941;52.210;5.158;2023-04-01T06:03:54;99359.13;;;10.07;100.00
65329;BME280;51941;52.210;5.158;2023-04-01T06:06:24;99364.38;;;10.02;100.00
65329;BME280;51941;52.210;5.158;2023-04-01T06:08:56;99372.03;;;9.93;100.00
65329;BME280;51941;52.210;5.158;2023-04-01T06:11:29;99376.25;;;10.00;100.00
65329;BME280;51941;52.210;5.158;2023-04-01T06:14:12;99376.03;;;10.06;100.00
65329;BME280;51941;52.210;5.158;2023-04-01T06:16:54;99382.59;;;9.93;100.00
65329;BME280;51941;52.210;5.158;2023-04-01T06:19:31;99384.75;;;10.07;100.00
65329;BME280;51941;52.210;5.158;2023-04-01T06:22:22;99387.63;;;9.90;100.00
65329;BME280;51941;52.210;5.158;2023-04-01T06:25:17;99403.25;;;9.97;100.00
65329;BME280;51941;52.210;5.158;2023-04-01T06:27:58;99409.56;;;9.85;100.00
65329;BME280;51941;52.210;5.158;2023-04-01T06:30:39;99418.56;;;9.89;100.00
65329;BME280;51941;52.210;5.158;2023-04-01T06:33:20;99417.50;;;9.96;100.00
65329;BME280;51941;52.210;5.158;2023-04-01T06:36:00;99423.31;;;9.92;100.00
65329;BME280;51941;52.210;5.158;2023-04-01T06:38:59;99430.72;;;10.01;100.00
65329;BME280;51941;52.210;5.158;2023-04-01T06:41:42;99411.91;;;9.77;100.00
65329;BME280;51941;52.210;5.158;2023-04-01T06:44:21;99439.75;;;10.10;100.00
65329;BME280;51941;52.210;5.158;2023-04-01T06:47:22;99413.78;;;9.91;100.00
65329;BME280;51941;52.210;5.158;2023-04-01T06:50:21;99447.94;;;10.13;100.00
65329;BME280;51941;52.210;5.158;2023-04-01T06:53:12;99445.59;;;10.17;100.00
65329;BME280;51941;52.210;5.158;2023-04-01T06:55:59;99452.19;;;10.14;100.00
65329;BME280;51941;52.210;5.158;2023-04-01T06:58:39;99456.94;;;10.17;100.00
65329;BME280;51941;52.210;5.158;2023-04-01T07:01:13;99469.31;;;9.97;100.00
65329;BME280;51941;52.210;5.158;2023-04-01T07:03:47;99459.81;;;10.01;100.00
65329;BME280;51941;52.210;5.158;2023-04-01T07:06:25;99470.38;;;10.01;100.00
65329;BME280;51941;52.210;5.158;2023-04-01T07:08:58;99438.88;;;9.84;100.00
65329;BME280;51941;52.210;5.158;2023-04-01T07:11:38;99456.88;;;9.87;100.00
65329;BME280;51941;52.210;5.158;2023-04-01T07:14:41;99480.72;;;10.12;100.00
65329;BME280;51941;52.210;5.158;2023-04-01T07:17:12;99479.44;;;10.15;100.00
65329;BME280;51941;52.210;5.158;2023-04-01T07:19:46;99491.59;;;10.16;100.00
65329;BME280;51941;52.210;5.158;2023-04-01T07:22:21;99494.50;;;10.19;100.00
65329;BME280;51941;52.210;5.158;2023-04-01T07:25:30;99502.69;;;10.13;100.00
65329;BME280;51941;52.210;5.158;2023-04-01T07:28:17;99507.47;;;10.26;100.00
65329;BME280;51941;52.210;5.158;2023-04-01T07:31:00;99500.03;;;10.13;100.00
65329;BME280;51941;52.210;5.158;2023-04-01T07:33:33;99518.63;;;10.33;100.00
65329;BME280;51941;52.210;5.158;2023-04-01T07:36:09;99522.31;;;10.37;100.00
65329;BME280;51941;52.210;5.158;2023-04-01T07:38:46;99528.69;;;10.41;100.00
65329;BME280;51941;52.210;5.158;2023-04-01T07:41:43;99527.09;;;10.45;100.00
65329;BME280;51941;52.210;5.158;2023-04-01T07:44:16;99528.72;;;10.51;100.00
65329;BME280;51941;52.210;5.158;2023-04-01T07:46:59;99526.06;;;10.56;100.00
65329;BME280;51941;52.210;5.158;2023-04-01T07:49:34;99543.81;;;10.66;100.00
65329;BME280;51941;52.210;5.158;2023-04-01T07:52:12;99536.91;;;10.70;100.00
65329;BME280;51941;52.210;5.158;2023-04-01T07:54:46;99541.16;;;10.71;100.00
65329;BME280;51941;52.210;5.158;2023-04-01T07:57:19;99506.25;;;10.69;100.00
65329;BME280;51941;52.210;5.158;2023-04-01T07:59:59;99547.81;;;10.79;100.00
65329;BME280;51941;52.210;5.158;2023-04-01T08:02:56;99547.56;;;10.75;100.00
65329;BME280;51941;52.210;5.158;2023-04-01T08:05:33;99558.69;;;10.97;100.00
65329;BME280;51941;52.210;5.158;2023-04-01T08:08:11;99570.38;;;11.12;100.00
65329;BME280;51941;52.210;5.158;2023-04-01T08:11:28;99557.91;;;11.07;100.00
65329;BME280;51941;52.210;5.158;2023-04-01T08:14:21;99571.41;;;10.90;100.00
65329;BME280;51941;52.210;5.158;2023-04-01T08:17:26;99572.75;;;11.03;100.00
65329;BME280;51941;52.210;5.158;2023-04-01T08:20:03;99589.16;;;11.05;100.00
65329;BME280;51941;52.210;5.158;2023-04-01T08:22:36;99589.69;;;10.87;100.00
65329;BME280;51941;52.210;5.158;2023-04-01T08:25:16;99581.47;;;10.93;100.00
65329;BME280;51941;52.210;5.158;2023-04-01T08:27:45;99593.91;;;10.83;100.00
65329;BME280;51941;52.210;5.158;2023-04-01T08:30:18;99594.69;;;10.78;100.00
65329;BME280;51941;52.210;5.158;2023-04-01T08:32:48;99596.28;;;10.89;100.00
65329;BME280;51941;52.210;5.158;2023-04-01T08:35:24;99599.72;;;10.85;100.00
65329;BME280;51941;52.210;5.158;2023-04-01T08:37:56;99575.56;;;10.71;100.00
65329;BME280;51941;52.210;5.158;2023-04-01T08:40:39;99569.19;;;10.62;100.00
65329;BME280;51941;52.210;5.158;2023-04-01T08:43:16;99588.84;;;10.81;100.00
65329;BME280;51941;52.210;5.158;2023-04-01T08:45:56;99624.91;;;11.02;100.00
65329;BME280;51941;52.210;5.158;2023-04-01T08:48:39;99601.84;;;10.88;100.00
65329;BME280;51941;52.210;5.158;2023-04-01T08:54:35;99606.59;;;10.81;100.00
65329;BME280;51941;52.210;5.158;2023-04-01T08:57:13;99631.50;;;10.85;100.00
65329;BME280;51941;52.210;5.158;2023-04-01T09:00:14;99621.44;;;10.92;100.00
65329;BME280;51941;52.210;5.158;2023-04-01T09:06:24;99637.38;;;11.17;100.00
65329;BME280;51941;52.210;5.158;2023-04-01T09:09:27;99651.13;;;11.24;100.00
65329;BME280;51941;52.210;5.158;2023-04-01T09:15:53;99651.94;;;11.25;100.00
65329;BME280;51941;52.210;5.158;2023-04-01T09:18:44;99657.47;;;11.03;100.00
65329;BME280;51941;52.210;5.158;2023-04-01T09:21:33;99655.34;;;11.05;100.00
65329;BME280;51941;52.210;5.158;2023-04-01T09:24:24;99662.50;;;10.99;100.00
65329;BME280;51941;52.210;5.158;2023-04-01T09:27:05;99665.19;;;11.20;100.00
65329;BME280;51941;52.210;5.158;2023-04-01T09:30:00;99660.44;;;11.22;100.00
65329;BME280;51941;52.210;5.158;2023-04-01T09:32:42;99673.44;;;11.38;100.00
65329;BME280;51941;52.210;5.158;2023-04-01T09:35:22;99665.19;;;11.20;100.00
65329;BME280;51941;52.210;5.158;2023-04-01T09:37:54;99683.22;;;11.28;100.00
65329;BME280;51941;52.210;5.158;2023-04-01T09:40:37;99685.59;;;11.29;100.00
65329;BME280;51941;52.210;5.158;2023-04-01T09:43:25;99694.28;;;11.10;100.00
65329;BME280;51941;52.210;5.158;2023-04-01T09:46:11;99698.00;;;11.03;100.00
65329;BME280;51941;52.210;5.158;2023-04-01T09:49:03;99694.84;;;11.12;100.00
65329;BME280;51941;52.210;5.158;2023-04-01T09:51:40;99701.19;;;11.16;100.00
65329;BME280;51941;52.210;5.158;2023-04-01T09:54:27;99678.94;;;11.12;100.00
65329;BME280;51941;52.210;5.158;2023-04-01T09:57:15;99703.06;;;11.25;100.00
65329;BME280;51941;52.210;5.158;2023-04-01T10:00:25;99712.84;;;11.15;100.00
65329;BME280;51941;52.210;5.158;2023-04-01T10:03:19;99706.75;;;11.09;100.00
65329;BME280;51941;52.210;5.158;2023-04-01T10:06:13;99707.53;;;11.10;100.00
65329;BME280;51941;52.210;5.158;2023-04-01T10:09:14;99713.09;;;11.08;100.00
65329;BME280;51941;52.210;5.158;2023-04-01T10:21:39;99725.66;;;11.89;100.00
65329;BME280;51941;52.210;5.158;2023-04-01T10:24:33;99734.66;;;11.98;100.00
65329;BME280;51941;52.210;5.158;2023-04-01T10:27:29;99726.97;;;11.96;100.00
65329;BME280;51941;52.210;5.158;2023-04-01T10:30:29;99737.56;;;11.76;100.00
65329;BME280;51941;52.210;5.158;2023-04-01T10:33:46;99726.44;;;11.94;100.00
65329;BME280;51941;52.210;5.158;2023-04-01T10:36:53;99722.72;;;11.80;100.00
65329;BME280;51941;52.210;5.158;2023-04-01T10:43:46;99739.94;;;12.13;100.00
65329;BME280;51941;52.210;5.158;2023-04-01T10:46:55;99739.69;;;12.30;100.00
65329;BME280;51941;52.210;5.158;2023-04-01T10:50:07;99737.06;;;12.25;100.00
65329;BME280;51941;52.210;5.158;2023-04-01T10:56:39;99761.44;;;12.11;100.00
65329;BME280;51941;52.210;5.158;2023-04-01T11:00:03;99755.34;;;12.06;100.00
65329;BME280;51941;52.210;5.158;2023-04-01T11:07:01;99755.88;;;12.23;100.00
65329;BME280;51941;52.210;5.158;2023-04-01T11:09:57;99732.53;;;12.10;100.00
65329;BME280;51941;52.210;5.158;2023-04-01T11:13:07;99763.00;;;12.48;100.00
65329;BME280;51941;52.210;5.158;2023-04-01T11:19:13;99777.88;;;12.54;100.00
65329;BME280;51941;52.210;5.158;2023-04-01T11:21:59;99643.50;;;11.48;100.00
65329;BME280;51941;52.210;5.158;2023-04-01T11:25:19;99627.06;;;11.31;100.00
65329;BME280;51941;52.210;5.158;2023-04-01T11:31:26;99797.81;;;12.16;100.00
65329;BME280;51941;52.210;5.158;2023-04-01T11:34:04;99774.69;;;12.06;100.00
65329;BME280;51941;52.210;5.158;2023-04-01T11:36:47;99668.94;;;11.39;100.00
65329;BME280;51941;52.210;5.158;2023-04-01T11:39:29;99805.25;;;12.19;100.00
65329;BME280;51941;52.210;5.158;2023-04-01T11:42:45;99685.63;;;11.55;100.00
65329;BME280;51941;52.210;5.158;2023-04-01T11:45:36;99817.19;;;12.16;100.00
65329;BME280;51941;52.210;5.158;2023-04-01T11:51:36;99821.66;;;12.06;100.00
65329;BME280;51941;52.210;5.158;2023-04-01T11:54:17;99795.63;;;11.67;100.00
65329;BME280;51941;52.210;5.158;2023-04-01T11:56:57;99835.72;;;12.06;100.00
65329;BME280;51941;52.210;5.158;2023-04-01T11:59:54;99840.19;;;11.86;100.00
65329;BME280;51941;52.210;5.158;2023-04-01T12:02:29;99801.72;;;11.78;100.00
65329;BME280;51941;52.210;5.158;2023-04-01T12:05:24;99839.66;;;11.89;100.00
65329;BME280;51941;52.210;5.158;2023-04-01T12:08:12;99834.91;;;11.96;100.00
65329;BME280;51941;52.210;5.158;2023-04-01T12:10:48;99846.06;;;12.13;100.00
65329;BME280;51941;52.210;5.158;2023-04-01T12:13:30;99855.34;;;12.00;100.00
65329;BME280;51941;52.210;5.158;2023-04-01T12:16:14;99853.19;;;12.02;100.00
65329;BME280;51941;52.210;5.158;2023-04-01T12:18:49;99827.69;;;11.76;100.00
65329;BME280;51941;52.210;5.158;2023-04-01T12:21:25;99858.72;;;11.75;100.00
65329;BME280;51941;52.210;5.158;2023-04-01T12:24:20;99867.44;;;11.61;100.00
65329;BME280;51941;52.210;5.158;2023-04-01T12:27:11;99881.75;;;11.60;100.00
65329;BME280;51941;52.210;5.158;2023-04-01T12:30:22;99884.13;;;11.61;100.00
65329;BME280;51941;52.210;5.158;2023-04-01T12:33:10;99889.69;;;11.55;100.00
65329;BME280;51941;52.210;5.158;2023-04-01T12:35:51;99897.09;;;11.58;100.00
65329;BME280;51941;52.210;5.158;2023-04-01T12:38:31;99876.38;;;11.39;100.00
65329;BME280;51941;52.210;5.158;2023-04-01T12:41:10;99897.44;;;11.66;100.00
65329;BME280;51941;52.210;5.158;2023-04-01T12:44:09;99901.69;;;11.77;100.00
65329;BME280;51941;52.210;5.158;2023-04-01T12:47:00;99837.75;;;11.49;100.00
65329;BME280;51941;52.210;5.158;2023-04-01T12:49:55;99892.50;;;12.10;100.00
65329;BME280;51941;52.210;5.158;2023-04-01T12:52:34;99894.38;;;12.20;100.00
65329;BME280;51941;52.210;5.158;2023-04-01T12:55:36;99901.84;;;12.43;100.00
65329;BME280;51941;52.210;5.158;2023-04-01T12:58:15;99902.34;;;12.40;100.00
65329;BME280;51941;52.210;5.158;2023-04-01T13:01:02;99912.97;;;12.50;100.00
65329;BME280;51941;52.210;5.158;2023-04-01T13:06:47;99911.34;;;12.29;100.00
65329;BME280;51941;52.210;5.158;2023-04-01T13:09:27;99888.72;;;11.81;100.00
65329;BME280;51941;52.210;5.158;2023-04-01T13:12:13;99918.19;;;12.00;100.00
65329;BME280;51941;52.210;5.158;2023-04-01T13:15:01;99936.44;;;11.86;100.00
65329;BME280;51941;52.210;5.158;2023-04-01T13:17:35;99930.84;;;11.72;100.00
65329;BME280;51941;52.210;5.158;2023-04-01T13:20:15;99946.16;;;11.60;100.00
65329;BME280;51941;52.210;5.158;2023-04-01T13:23:00;99922.75;;;11.37;100.00
65329;BME280;51941;52.210;5.158;2023-04-01T13:25:36;99961.19;;;11.39;100.00
65329;BME280;51941;52.210;5.158;2023-04-01T13:28:11;99965.63;;;11.29;100.00
65329;BME280;51941;52.210;5.158;2023-04-01T13:30:42;99968.44;;;11.12;100.00
65329;BME280;51941;52.210;5.158;2023-04-01T13:33:17;99959.63;;;11.01;100.00
65329;BME280;51941;52.210;5.158;2023-04-01T13:35:53;99980.06;;;11.11;100.00
65329;BME280;51941;52.210;5.158;2023-04-01T13:41:32;99948.25;;;10.74;100.00
65329;BME280;51941;52.210;5.158;2023-04-01T13:44:10;99974.91;;;10.94;100.00
65329;BME280;51941;52.210;5.158;2023-04-01T13:47:06;99983.28;;;10.81;100.00
65329;BME280;51941;52.210;5.158;2023-04-01T13:49:45;99985.44;;;10.84;100.00
65329;BME280;51941;52.210;5.158;2023-04-01T13:53:01;99995.91;;;10.74;100.00
65329;BME280;51941;52.210;5.158;2023-04-01T13:55:48;99997.03;;;10.78;100.00
65329;BME280;51941;52.210;5.158;2023-04-01T13:58:40;99998.34;;;10.76;100.00
65329;BME280;51941;52.210;5.158;2023-04-01T14:01:13;99997.03;;;10.78;100.00
65329;BME280;51941;52.210;5.158;2023-04-01T14:03:54;100003.00;;;10.68;100.00
65329;BME280;51941;52.210;5.158;2023-04-01T14:06:32;100004.88;;;10.73;100.00
65329;BME280;51941;52.210;5.158;2023-04-01T14:09:25;100016.25;;;10.68;100.00
65329;BME280;51941;52.210;5.158;2023-04-01T14:12:03;100011.56;;;10.76;100.00
65329;BME280;51941;52.210;5.158;2023-04-01T14:14:44;100020.09;;;10.83;100.00
65329;BME280;51941;52.210;5.158;2023-04-01T14:17:41;100024.28;;;10.79;100.00
65329;BME280;51941;52.210;5.158;2023-04-01T14:20:33;100032.78;;;10.81;100.00
65329;BME280;51941;52.210;5.158;2023-04-01T14:23:27;100039.44;;;10.83;100.00
65329;BME280;51941;52.210;5.158;2023-04-01T14:26:31;100050.47;;;10.75;100.00
65329;BME280;51941;52.210;5.158;2023-04-01T14:29:11;100013.19;;;10.55;100.00
65329;BME280;51941;52.210;5.158;2023-04-01T14:31:56;100027.06;;;10.67;100.00
65329;BME280;51941;52.210;5.158;2023-04-01T14:34:34;100062.44;;;10.83;100.00
65329;BME280;51941;52.210;5.158;2023-04-01T14:37:15;100054.50;;;10.83;100.00
65329;BME280;51941;52.210;5.158;2023-04-01T14:40:00;100043.88;;;10.78;100.00